Portada
METAR-TAF:

METAR-TAF

Aeropuertos :

Base Aérea de Alcantarilla

Murcia, España

latitud: 37-57N, longitud: 001-14W, altitud: 75 m

Observación

El informe se hizo hace 15 minutos, a las 08:00 UTC
Viento 1 kt con dirección variable
Temperatura 9°C
Humedad 87%
Presión 1022 hPa
Visibilidad 10 km o más
Cielo nuboso a una altura de 2300 ft

METAR: LERI 180800Z VRB01KT 9999 BKN023 09/07 Q1022 NOSIG

Hora: 09:15 (08:15 UTC)

Pronóstico

El informe se hizo hace 3 horas y 15 minutos, a las 05:00 UTC
Pronóstico válido del 18 a las 06 UTC al 18 a las 15 UTC
Viento 4 kt del noroeste
Visibilidad 10 km o más
Nubes dispersas a una altura de 1500 ft
Evolucionando progresivamente
del 18 a las 11 UTC al 18 a las 13 UTC
Viento 10 kt del este-noreste

TAF: LERI 180500Z 1806/1815 32004KT 9999 SCT015 BECMG 1811/1813 06010KT

Observaciones y pronósticos meteorológicos de más de 4000 aeropuertos (mensajes METAR y TAF).

Los puntos amarillos y rojos representan las estaciones disponibles.

Ponga el ratón en el punto deseado para ver el nombre de la estación.

Haga clic para ver las observaciones y los pronósticos meteorológicos.

Para cambiar el mapa : haga clic en los botones verdes con una cruz de color negro para hacer un zoom, en el botón verde con un guión para alejar o en las flechas verdes para mapas adyacentes.


METAR-TAF: